FIN2N ENBR-ESSA
Flight info
| Callsign | FIN2N |
|---|---|
| Flight time | 1h 3m |
| Altitude | 37000 |
| Route | GOKAB DCT ELTOK |
| Aircraft | A320/M-SDE3FGHIRWY/LB1 |
Departure
| Time | 2026-05-08 09:06 |
|---|---|
| Airport | Bergen Airport, Flesland (ENBR) |
Arrival
| Time | 2026-05-08 10:09 |
|---|---|
| Airport | Stockholm-Arlanda Airport (ESSA) |
| Time | Latitude | Longitude | Altitude | Speed | Heading |
|---|---|---|---|---|---|
| 2026-05-08 08:41 | 60.28966 | 5.22579 | 175 ft | 0 kts | 133° |
| 2026-05-08 08:56 | 60.28981 | 5.22544 | 175 ft | 4 kts | 128° |
| 2026-05-08 08:56 | 60.28998 | 5.22504 | 175 ft | 3 kts | 135° |
| 2026-05-08 08:57 | 60.29015 | 5.22477 | 176 ft | 4 kts | 174° |
| 2026-05-08 08:57 | 60.29034 | 5.22492 | 176 ft | 4 kts | 237° |
| 2026-05-08 08:57 | 60.29043 | 5.22526 | 176 ft | 0 kts | 253° |
| 2026-05-08 09:00 | 60.29034 | 5.22464 | 176 ft | 5 kts | 259° |
| 2026-05-08 09:00 | 60.29035 | 5.22395 | 176 ft | 5 kts | 284° |
| 2026-05-08 09:01 | 60.29071 | 5.22351 | 177 ft | 10 kts | 348° |
| 2026-05-08 09:01 | 60.29161 | 5.22320 | 178 ft | 17 kts | 350° |
| 2026-05-08 09:01 | 60.29283 | 5.22276 | 170 ft | 18 kts | 351° |
| 2026-05-08 09:01 | 60.29402 | 5.22234 | 163 ft | 14 kts | 351° |
| 2026-05-08 09:02 | 60.29512 | 5.22197 | 155 ft | 18 kts | 350° |
| 2026-05-08 09:02 | 60.29631 | 5.22158 | 151 ft | 14 kts | 351° |
| 2026-05-08 09:02 | 60.29663 | 5.22147 | 150 ft | 0 kts | 351° |
| 2026-05-08 09:03 | 60.29676 | 5.22143 | 150 ft | 6 kts | 351° |
| 2026-05-08 09:03 | 60.29724 | 5.22079 | 148 ft | 11 kts | 289° |
| 2026-05-08 09:03 | 60.29774 | 5.21988 | 149 ft | 11 kts | 351° |
| 2026-05-08 09:04 | 60.29884 | 5.21951 | 153 ft | 20 kts | 352° |
| 2026-05-08 09:04 | 60.30003 | 5.21914 | 158 ft | 15 kts | 351° |
| 2026-05-08 09:04 | 60.30044 | 5.21793 | 160 ft | 10 kts | 258° |
| 2026-05-08 09:04 | 60.30030 | 5.21645 | 159 ft | 12 kts | 263° |
| 2026-05-08 09:05 | 60.29962 | 5.21607 | 156 ft | 13 kts | 168° |
| 2026-05-08 09:05 | 60.29822 | 5.21657 | 149 ft | 44 kts | 170° |
| 2026-05-08 09:05 | 60.29270 | 5.21839 | 157 ft | 112 kts | 171° |
| 2026-05-08 09:05 | 60.28403 | 5.22136 | 547 ft | 125 kts | 171° |
| 2026-05-08 09:06 | 60.27512 | 5.22447 | 1102 ft | 134 kts | 171° |
| 2026-05-08 09:06 | 60.26571 | 5.22768 | 1699 ft | 143 kts | 171° |
| 2026-05-08 09:06 | 60.25472 | 5.23127 | 1968 ft | 173 kts | 171° |
| 2026-05-08 09:06 | 60.24198 | 5.23544 | 2361 ft | 197 kts | 171° |
| 2026-05-08 09:07 | 60.22780 | 5.24012 | 2863 ft | 221 kts | 171° |
| 2026-05-08 09:07 | 60.21222 | 5.24528 | 3704 ft | 229 kts | 171° |
| 2026-05-08 09:07 | 60.19637 | 5.25062 | 4709 ft | 232 kts | 170° |
| 2026-05-08 09:07 | 60.18110 | 5.26270 | 5571 ft | 244 kts | 147° |
| 2026-05-08 09:08 | 60.17003 | 5.28954 | 6392 ft | 262 kts | 117° |
| 2026-05-08 09:08 | 60.16758 | 5.32667 | 7161 ft | 282 kts | 83° |
| 2026-05-08 09:08 | 60.17594 | 5.36239 | 7950 ft | 296 kts | 50° |
| 2026-05-08 09:08 | 60.19308 | 5.38568 | 8813 ft | 303 kts | 21° |
| 2026-05-08 09:09 | 60.21352 | 5.39777 | 9694 ft | 307 kts | 12° |
| 2026-05-08 09:09 | 60.23377 | 5.41244 | 10430 ft | 316 kts | 32° |
| 2026-05-08 09:09 | 60.25009 | 5.44384 | 10711 ft | 337 kts | 60° |
| 2026-05-08 09:09 | 60.25950 | 5.48758 | 11198 ft | 346 kts | 74° |
| 2026-05-08 09:10 | 60.26767 | 5.53379 | 11925 ft | 353 kts | 73° |
| 2026-05-08 09:10 | 60.27610 | 5.57991 | 12672 ft | 358 kts | 72° |
| 2026-05-08 09:10 | 60.28493 | 5.62721 | 13433 ft | 363 kts | 71° |
| 2026-05-08 09:10 | 60.29397 | 5.67527 | 14147 ft | 368 kts | 71° |
| 2026-05-08 09:11 | 60.30308 | 5.72394 | 14822 ft | 372 kts | 72° |
| 2026-05-08 09:11 | 60.31225 | 5.77316 | 15512 ft | 376 kts | 72° |
| 2026-05-08 09:11 | 60.32146 | 5.82281 | 16200 ft | 379 kts | 72° |
| 2026-05-08 09:11 | 60.33070 | 5.87301 | 16884 ft | 383 kts | 72° |
| 2026-05-08 09:12 | 60.34000 | 5.92375 | 17535 ft | 387 kts | 72° |
| 2026-05-08 09:12 | 60.34928 | 5.97438 | 18182 ft | 391 kts | 72° |
| 2026-05-08 09:12 | 60.35878 | 6.02616 | 18774 ft | 395 kts | 72° |
| 2026-05-08 09:12 | 60.36836 | 6.07859 | 19323 ft | 399 kts | 72° |
| 2026-05-08 09:13 | 60.37797 | 6.13159 | 19906 ft | 403 kts | 72° |
| 2026-05-08 09:13 | 60.38437 | 6.16710 | 20294 ft | 405 kts | 72° |
| 2026-05-08 09:13 | 60.39409 | 6.22101 | 20871 ft | 409 kts | 72° |
| 2026-05-08 09:13 | 60.40710 | 6.29319 | 21613 ft | 414 kts | 72° |
| 2026-05-08 09:14 | 60.41699 | 6.34828 | 22179 ft | 418 kts | 73° |
| 2026-05-08 09:14 | 60.42629 | 6.40431 | 22739 ft | 420 kts | 79° |
| 2026-05-08 09:14 | 60.43031 | 6.44341 | 23087 ft | 420 kts | 85° |
| 2026-05-08 09:14 | 60.43233 | 6.50164 | 23611 ft | 419 kts | 95° |
| 2026-05-08 09:15 | 60.43127 | 6.56079 | 24067 ft | 421 kts | 96° |
| 2026-05-08 09:15 | 60.43014 | 6.62023 | 24516 ft | 423 kts | 96° |
| 2026-05-08 09:15 | 60.42902 | 6.68004 | 24951 ft | 426 kts | 96° |
| 2026-05-08 09:15 | 60.42788 | 6.74017 | 25376 ft | 428 kts | 96° |
| 2026-05-08 09:16 | 60.42672 | 6.80076 | 25788 ft | 431 kts | 96° |
| 2026-05-08 09:16 | 60.42552 | 6.86152 | 26187 ft | 433 kts | 96° |
| 2026-05-08 09:16 | 60.42426 | 6.92267 | 26591 ft | 436 kts | 97° |
| 2026-05-08 09:16 | 60.42294 | 6.98332 | 26997 ft | 438 kts | 97° |
| 2026-05-08 09:17 | 60.42157 | 7.04518 | 27429 ft | 439 kts | 97° |
| 2026-05-08 09:17 | 60.42017 | 7.10735 | 27823 ft | 441 kts | 97° |
| 2026-05-08 09:17 | 60.41878 | 7.16966 | 28188 ft | 444 kts | 97° |
| 2026-05-08 09:17 | 60.41734 | 7.23224 | 28598 ft | 446 kts | 97° |
| 2026-05-08 09:18 | 60.41585 | 7.29496 | 28986 ft | 448 kts | 97° |
| 2026-05-08 09:18 | 60.41433 | 7.35755 | 29368 ft | 450 kts | 97° |
| 2026-05-08 09:18 | 60.41278 | 7.42111 | 29719 ft | 452 kts | 97° |
| 2026-05-08 09:18 | 60.41118 | 7.48507 | 30026 ft | 455 kts | 97° |
| 2026-05-08 09:19 | 60.40957 | 7.54914 | 30332 ft | 457 kts | 97° |
| 2026-05-08 09:19 | 60.40796 | 7.61361 | 30625 ft | 459 kts | 97° |
| 2026-05-08 09:19 | 60.40631 | 7.67753 | 30901 ft | 461 kts | 97° |
| 2026-05-08 09:19 | 60.40458 | 7.74253 | 31163 ft | 463 kts | 97° |
| 2026-05-08 09:20 | 60.40274 | 7.80787 | 31414 ft | 465 kts | 98° |
| 2026-05-08 09:20 | 60.40084 | 7.87330 | 31681 ft | 466 kts | 98° |
| 2026-05-08 09:20 | 60.39895 | 7.93892 | 31966 ft | 467 kts | 98° |
| 2026-05-08 09:20 | 60.39707 | 8.00453 | 32316 ft | 466 kts | 98° |
| 2026-05-08 09:21 | 60.39520 | 8.06906 | 32669 ft | 465 kts | 98° |
| 2026-05-08 09:21 | 60.39326 | 8.13434 | 32968 ft | 464 kts | 98° |
| 2026-05-08 09:22 | 60.38105 | 8.52256 | 34884 ft | 459 kts | 98° |
| 2026-05-08 09:23 | 60.37888 | 8.58704 | 35112 ft | 460 kts | 98° |
| 2026-05-08 09:23 | 60.37450 | 8.71624 | 35189 ft | 460 kts | 98° |
| 2026-05-08 09:24 | 60.37004 | 8.84443 | 35191 ft | 460 kts | 98° |
| 2026-05-08 09:24 | 60.36541 | 8.97359 | 35187 ft | 460 kts | 98° |
| 2026-05-08 09:25 | 60.36062 | 9.10267 | 35187 ft | 460 kts | 98° |
| 2026-05-08 09:25 | 60.35570 | 9.23178 | 35193 ft | 460 kts | 98° |
| 2026-05-08 09:26 | 60.35067 | 9.36077 | 35193 ft | 460 kts | 98° |
| 2026-05-08 09:26 | 60.34557 | 9.48890 | 35196 ft | 460 kts | 98° |
| 2026-05-08 09:27 | 60.34028 | 9.61774 | 35198 ft | 461 kts | 98° |
| 2026-05-08 09:27 | 60.33491 | 9.74663 | 35201 ft | 460 kts | 98° |
| 2026-05-08 09:28 | 60.32935 | 9.87560 | 35200 ft | 460 kts | 98° |
| 2026-05-08 09:28 | 60.32372 | 10.00349 | 35211 ft | 460 kts | 99° |
| 2026-05-08 09:29 | 60.31791 | 10.13222 | 35195 ft | 460 kts | 99° |
| 2026-05-08 09:29 | 60.31211 | 10.26112 | 35216 ft | 461 kts | 99° |
| 2026-05-08 09:30 | 60.30616 | 10.38992 | 35218 ft | 461 kts | 99° |
| 2026-05-08 09:30 | 60.30007 | 10.51784 | 35229 ft | 461 kts | 99° |
| 2026-05-08 09:31 | 60.29371 | 10.64658 | 35240 ft | 460 kts | 99° |
| 2026-05-08 09:31 | 60.28723 | 10.77527 | 35224 ft | 460 kts | 99° |
| 2026-05-08 09:32 | 60.28072 | 10.90309 | 35242 ft | 461 kts | 99° |
| 2026-05-08 09:32 | 60.27411 | 11.03209 | 35240 ft | 461 kts | 99° |
| 2026-05-08 09:33 | 60.26739 | 11.16065 | 35243 ft | 461 kts | 99° |
| 2026-05-08 09:33 | 60.26055 | 11.28843 | 35237 ft | 461 kts | 99° |
| 2026-05-08 09:34 | 60.25353 | 11.41704 | 35242 ft | 461 kts | 99° |
| 2026-05-08 09:34 | 60.24636 | 11.54561 | 35241 ft | 462 kts | 99° |
| 2026-05-08 09:35 | 60.23911 | 11.67340 | 35244 ft | 463 kts | 99° |
| 2026-05-08 09:35 | 60.23165 | 11.80268 | 35246 ft | 465 kts | 100° |
| 2026-05-08 09:36 | 60.22408 | 11.93209 | 35253 ft | 465 kts | 100° |
| 2026-05-08 09:36 | 60.21639 | 12.06075 | 35248 ft | 465 kts | 100° |
| 2026-05-08 09:37 | 60.20852 | 12.19006 | 35253 ft | 466 kts | 100° |
| 2026-05-08 09:37 | 60.20063 | 12.31939 | 35252 ft | 466 kts | 100° |
| 2026-05-08 09:38 | 60.19263 | 12.44802 | 35258 ft | 466 kts | 100° |
| 2026-05-08 09:38 | 60.18435 | 12.57762 | 35266 ft | 466 kts | 100° |
| 2026-05-08 09:39 | 60.17600 | 12.70596 | 35275 ft | 466 kts | 101° |
| 2026-05-08 09:39 | 60.16752 | 12.83503 | 35266 ft | 466 kts | 101° |
| 2026-05-08 09:40 | 60.15895 | 12.96422 | 35273 ft | 466 kts | 101° |
| 2026-05-08 09:40 | 60.15028 | 13.09239 | 35264 ft | 466 kts | 101° |
| 2026-05-08 09:41 | 60.14136 | 13.22136 | 35275 ft | 465 kts | 101° |
| 2026-05-08 09:41 | 60.13241 | 13.35009 | 35269 ft | 466 kts | 101° |
| 2026-05-08 09:42 | 60.12342 | 13.47801 | 35276 ft | 465 kts | 101° |
| 2026-05-08 09:42 | 60.11420 | 13.60647 | 35275 ft | 464 kts | 101° |
| 2026-05-08 09:43 | 60.10493 | 13.73420 | 35274 ft | 464 kts | 101° |
| 2026-05-08 09:43 | 60.09549 | 13.86245 | 35276 ft | 464 kts | 101° |
| 2026-05-08 09:44 | 60.08590 | 13.99071 | 35279 ft | 464 kts | 101° |
| 2026-05-08 09:44 | 60.07629 | 14.11783 | 35279 ft | 464 kts | 101° |
| 2026-05-08 09:45 | 60.06645 | 14.24576 | 35287 ft | 464 kts | 101° |
| 2026-05-08 09:45 | 60.05652 | 14.37342 | 35238 ft | 463 kts | 101° |
| 2026-05-08 09:45 | 60.05155 | 14.43698 | 34721 ft | 461 kts | 101° |
| 2026-05-08 09:46 | 60.04665 | 14.49947 | 34128 ft | 458 kts | 102° |
| 2026-05-08 09:46 | 60.04169 | 14.56228 | 33533 ft | 454 kts | 102° |
| 2026-05-08 09:46 | 60.03671 | 14.62442 | 32965 ft | 450 kts | 102° |
| 2026-05-08 09:46 | 60.03171 | 14.68597 | 32387 ft | 446 kts | 102° |
| 2026-05-08 09:47 | 60.02672 | 14.74720 | 31819 ft | 443 kts | 101° |
| 2026-05-08 09:47 | 60.02185 | 14.80696 | 31284 ft | 440 kts | 101° |
| 2026-05-08 09:47 | 60.01692 | 14.86725 | 30736 ft | 437 kts | 101° |
| 2026-05-08 09:47 | 60.01201 | 14.92705 | 30162 ft | 435 kts | 101° |
| 2026-05-08 09:48 | 60.00708 | 14.98659 | 29612 ft | 431 kts | 101° |
| 2026-05-08 09:48 | 60.00222 | 15.04516 | 29096 ft | 426 kts | 101° |
| 2026-05-08 09:48 | 59.99733 | 15.10338 | 28587 ft | 422 kts | 101° |
| 2026-05-08 09:48 | 59.99248 | 15.16095 | 28091 ft | 417 kts | 101° |
| 2026-05-08 09:49 | 59.98772 | 15.21722 | 27622 ft | 413 kts | 101° |
| 2026-05-08 09:49 | 59.98292 | 15.27353 | 27152 ft | 410 kts | 102° |
| 2026-05-08 09:49 | 59.97811 | 15.32951 | 26689 ft | 406 kts | 102° |
| 2026-05-08 09:49 | 59.97332 | 15.38490 | 26222 ft | 403 kts | 102° |
| 2026-05-08 09:50 | 59.96855 | 15.43985 | 25753 ft | 400 kts | 101° |
| 2026-05-08 09:50 | 59.96378 | 15.49455 | 25283 ft | 398 kts | 101° |
| 2026-05-08 09:50 | 59.95910 | 15.54812 | 24804 ft | 396 kts | 101° |
| 2026-05-08 09:50 | 59.95436 | 15.60222 | 24317 ft | 394 kts | 101° |
| 2026-05-08 09:51 | 59.94960 | 15.65593 | 24088 ft | 394 kts | 102° |
| 2026-05-08 09:51 | 59.94478 | 15.71026 | 24001 ft | 397 kts | 102° |
| 2026-05-08 09:51 | 59.93996 | 15.76460 | 23532 ft | 397 kts | 102° |
| 2026-05-08 09:51 | 59.93512 | 15.81882 | 23016 ft | 394 kts | 101° |
| 2026-05-08 09:52 | 59.93036 | 15.87194 | 22864 ft | 382 kts | 102° |
| 2026-05-08 09:52 | 59.92579 | 15.92274 | 22634 ft | 372 kts | 102° |
| 2026-05-08 09:52 | 59.92114 | 15.97417 | 21674 ft | 383 kts | 101° |
| 2026-05-08 09:52 | 59.91626 | 16.02750 | 21106 ft | 397 kts | 101° |
| 2026-05-08 09:53 | 59.91125 | 16.08215 | 20634 ft | 401 kts | 101° |
| 2026-05-08 09:53 | 59.90624 | 16.13661 | 20141 ft | 399 kts | 101° |
| 2026-05-08 09:53 | 59.90121 | 16.19085 | 19624 ft | 396 kts | 101° |
| 2026-05-08 09:53 | 59.89619 | 16.24480 | 19121 ft | 394 kts | 100° |
| 2026-05-08 09:54 | 59.89122 | 16.29778 | 18601 ft | 392 kts | 100° |
| 2026-05-08 09:54 | 59.88619 | 16.35116 | 18031 ft | 390 kts | 100° |
| 2026-05-08 09:54 | 59.88121 | 16.40399 | 17492 ft | 387 kts | 100° |
| 2026-05-08 09:54 | 59.87624 | 16.45643 | 16962 ft | 384 kts | 101° |
| 2026-05-08 09:55 | 59.87128 | 16.50851 | 16469 ft | 380 kts | 101° |
| 2026-05-08 09:55 | 59.86638 | 16.56002 | 15924 ft | 379 kts | 101° |
| 2026-05-08 09:55 | 59.86145 | 16.61163 | 15268 ft | 381 kts | 101° |
| 2026-05-08 09:55 | 59.85657 | 16.66216 | 15004 ft | 371 kts | 101° |
| 2026-05-08 09:56 | 59.85174 | 16.71210 | 14618 ft | 364 kts | 101° |
| 2026-05-08 09:56 | 59.84696 | 16.76127 | 13742 ft | 360 kts | 101° |
| 2026-05-08 09:56 | 59.84220 | 16.80986 | 12935 ft | 356 kts | 101° |
| 2026-05-08 09:56 | 59.83742 | 16.85823 | 12478 ft | 355 kts | 101° |
| 2026-05-08 09:57 | 59.82856 | 16.94809 | 12077 ft | 312 kts | 102° |
| 2026-05-08 09:57 | 59.82552 | 16.99012 | 11566 ft | 303 kts | 91° |
| 2026-05-08 09:57 | 59.82682 | 17.03152 | 10977 ft | 298 kts | 83° |
| 2026-05-08 09:58 | 59.82925 | 17.07237 | 10352 ft | 296 kts | 83° |
| 2026-05-08 09:58 | 59.83161 | 17.11278 | 9767 ft | 293 kts | 83° |
| 2026-05-08 09:58 | 59.83392 | 17.15256 | 9345 ft | 292 kts | 83° |
| 2026-05-08 09:58 | 59.83622 | 17.19262 | 8947 ft | 290 kts | 84° |
| 2026-05-08 09:59 | 59.83736 | 17.23243 | 8553 ft | 287 kts | 95° |
| 2026-05-08 09:59 | 59.83375 | 17.27122 | 8170 ft | 283 kts | 109° |
| 2026-05-08 09:59 | 59.82723 | 17.30806 | 7776 ft | 281 kts | 107° |
| 2026-05-08 09:59 | 59.82440 | 17.34577 | 7404 ft | 280 kts | 94° |
| 2026-05-08 10:00 | 59.82357 | 17.38472 | 7017 ft | 276 kts | 92° |
| 2026-05-08 10:00 | 59.82283 | 17.42231 | 6647 ft | 273 kts | 93° |
| 2026-05-08 10:00 | 59.82212 | 17.45993 | 6288 ft | 269 kts | 93° |
| 2026-05-08 10:00 | 59.82150 | 17.49619 | 6153 ft | 257 kts | 92° |
| 2026-05-08 10:01 | 59.82095 | 17.53051 | 6022 ft | 245 kts | 92° |
| 2026-05-08 10:01 | 59.82039 | 17.56362 | 5831 ft | 236 kts | 93° |
| 2026-05-08 10:01 | 59.81986 | 17.59591 | 5533 ft | 232 kts | 93° |
| 2026-05-08 10:01 | 59.81941 | 17.62789 | 5196 ft | 231 kts | 93° |
| 2026-05-08 10:02 | 59.81898 | 17.65984 | 4851 ft | 230 kts | 92° |
| 2026-05-08 10:02 | 59.81860 | 17.69158 | 4517 ft | 229 kts | 93° |
| 2026-05-08 10:02 | 59.81830 | 17.72313 | 4234 ft | 226 kts | 93° |
| 2026-05-08 10:02 | 59.81813 | 17.75448 | 4102 ft | 227 kts | 93° |
| 2026-05-08 10:03 | 59.81804 | 17.78528 | 3899 ft | 226 kts | 93° |
| 2026-05-08 10:03 | 59.81786 | 17.81654 | 3677 ft | 226 kts | 93° |
| 2026-05-08 10:03 | 59.81770 | 17.84770 | 3528 ft | 224 kts | 92° |
| 2026-05-08 10:03 | 59.81765 | 17.87794 | 3397 ft | 214 kts | 93° |
| 2026-05-08 10:04 | 59.81768 | 17.89732 | 3310 ft | 210 kts | 92° |
| 2026-05-08 10:04 | 59.81767 | 17.92626 | 3183 ft | 208 kts | 92° |
| 2026-05-08 10:04 | 59.81581 | 17.96401 | 2998 ft | 204 kts | 117° |
| 2026-05-08 10:04 | 59.81052 | 17.97961 | 2927 ft | 202 kts | 135° |
| 2026-05-08 10:05 | 59.79952 | 17.99646 | 2798 ft | 198 kts | 154° |
| 2026-05-08 10:05 | 59.78666 | 18.00475 | 2674 ft | 197 kts | 172° |
| 2026-05-08 10:05 | 59.77312 | 18.00422 | 2563 ft | 190 kts | 187° |
| 2026-05-08 10:05 | 59.76033 | 17.99952 | 2378 ft | 188 kts | 187° |
| 2026-05-08 10:06 | 59.74748 | 17.99480 | 2129 ft | 186 kts | 187° |
| 2026-05-08 10:06 | 59.73502 | 17.99024 | 1871 ft | 180 kts | 188° |
| 2026-05-08 10:06 | 59.72281 | 17.98578 | 1663 ft | 173 kts | 188° |
| 2026-05-08 10:06 | 59.71136 | 17.98159 | 1387 ft | 160 kts | 186° |
| 2026-05-08 10:07 | 59.70085 | 17.97777 | 1179 ft | 148 kts | 187° |
| 2026-05-08 10:07 | 59.69099 | 17.97418 | 992 ft | 141 kts | 187° |
| 2026-05-08 10:07 | 59.68140 | 17.97071 | 798 ft | 140 kts | 190° |
| 2026-05-08 10:07 | 59.67184 | 17.96724 | 624 ft | 139 kts | 189° |
| 2026-05-08 10:08 | 59.66237 | 17.96380 | 427 ft | 138 kts | 191° |
| 2026-05-08 10:08 | 59.65298 | 17.96040 | 257 ft | 137 kts | 190° |
| 2026-05-08 10:08 | 59.64374 | 17.95713 | 113 ft | 128 kts | 189° |
| 2026-05-08 10:08 | 59.63637 | 17.95441 | 117 ft | 86 kts | 191° |
| 2026-05-08 10:09 | 59.63204 | 17.95286 | 124 ft | 39 kts | 190° |
| 2026-05-08 10:09 | 59.62976 | 17.95107 | 136 ft | 33 kts | 217° |
| 2026-05-08 10:09 | 59.62850 | 17.94884 | 137 ft | 11 kts | 242° |
| 2026-05-08 10:09 | 59.62885 | 17.94763 | 137 ft | 13 kts | 350° |
| 2026-05-08 10:10 | 59.62995 | 17.94797 | 134 ft | 20 kts | 10° |
| 2026-05-08 10:10 | 59.63142 | 17.94847 | 126 ft | 22 kts | 9° |
| 2026-05-08 10:10 | 59.63290 | 17.94904 | 124 ft | 22 kts | 10° |
| 2026-05-08 10:10 | 59.63429 | 17.94957 | 120 ft | 21 kts | 11° |
| 2026-05-08 10:11 | 59.63573 | 17.95007 | 115 ft | 21 kts | 11° |
| 2026-05-08 10:11 | 59.63710 | 17.95057 | 111 ft | 17 kts | 9° |
| 2026-05-08 10:11 | 59.63824 | 17.95099 | 110 ft | 17 kts | 11° |
| 2026-05-08 10:11 | 59.63935 | 17.95138 | 109 ft | 15 kts | 9° |
| 2026-05-08 10:12 | 59.64040 | 17.95174 | 108 ft | 15 kts | 10° |
| 2026-05-08 10:12 | 59.64142 | 17.95212 | 107 ft | 15 kts | 11° |
| 2026-05-08 10:12 | 59.64244 | 17.95233 | 106 ft | 15 kts | 355° |
| 2026-05-08 10:12 | 59.64341 | 17.95151 | 105 ft | 16 kts | 320° |
| 2026-05-08 10:13 | 59.64399 | 17.94973 | 102 ft | 16 kts | 287° |
| 2026-05-08 10:13 | 59.64394 | 17.94766 | 103 ft | 15 kts | 251° |
| 2026-05-08 10:13 | 59.64339 | 17.94579 | 102 ft | 16 kts | 239° |
| 2026-05-08 10:13 | 59.64280 | 17.94378 | 103 ft | 17 kts | 241° |
| 2026-05-08 10:14 | 59.64213 | 17.94175 | 105 ft | 17 kts | 237° |
| 2026-05-08 10:14 | 59.64152 | 17.93983 | 108 ft | 16 kts | 237° |
| 2026-05-08 10:14 | 59.64095 | 17.93801 | 111 ft | 15 kts | 236° |
| 2026-05-08 10:14 | 59.64036 | 17.93621 | 112 ft | 16 kts | 238° |
| 2026-05-08 10:15 | 59.63985 | 17.93407 | 111 ft | 18 kts | 261° |